createdAt,value
2022-12-19T00:02:10.380Z,106.07
2022-12-19T00:04:38.109Z,130.23
2022-12-19T00:07:05.509Z,78.82
2022-12-19T00:09:32.885Z,69.60
2022-12-19T00:12:02.482Z,80.65
2022-12-19T00:14:29.982Z,78.78
2022-12-19T00:16:57.360Z,90.90
2022-12-19T00:19:24.986Z,93.30
2022-12-19T00:21:52.394Z,77.80
2022-12-19T00:24:21.180Z,79.28
2022-12-19T00:26:50.153Z,75.78
2022-12-19T00:29:17.526Z,85.10
2022-12-19T00:31:44.967Z,79.30
2022-12-19T00:34:14.483Z,79.12
2022-12-19T00:36:41.831Z,76.87
2022-12-19T00:39:10.542Z,82.62
2022-12-19T00:41:42.042Z,92.60
2022-12-19T00:44:12.443Z,92.47
2022-12-19T00:46:42.962Z,76.75
2022-12-19T00:49:16.478Z,83.43
2022-12-19T00:51:44.128Z,69.72
2022-12-19T00:54:11.566Z,74.87
2022-12-19T00:56:39.249Z,77.43
2022-12-19T00:59:07.407Z,67.68
2022-12-19T01:01:38.846Z,82.12
2022-12-19T01:06:57.778Z,68.18
2022-12-19T01:09:33.304Z,61.70
2022-12-19T01:12:20.494Z,64.07
2022-12-19T01:14:54.656Z,68.22
2022-12-19T01:17:25.888Z,64.47
2022-12-19T01:19:53.719Z,71.78
2022-12-19T01:22:21.147Z,68.82
2022-12-19T01:24:48.504Z,65.75
2022-12-19T01:27:16.196Z,63.58
2022-12-19T01:29:51.180Z,62.67
2022-12-19T01:32:21.901Z,61.55
2022-12-19T01:34:49.630Z,63.33
2022-12-19T01:37:17.248Z,66.40
2022-12-19T01:39:46.119Z,74.07
2022-12-19T01:42:23.675Z,78.30
2022-12-19T01:45:04.279Z,78.62
2022-12-19T01:47:34.665Z,73.50
2022-12-19T01:50:03.270Z,88.65
2022-12-19T01:52:30.665Z,90.80
2022-12-19T01:54:58.469Z,80.75
2022-12-19T01:57:26.488Z,85.05
2022-12-19T01:59:57.233Z,86.18
2022-12-19T02:02:27.748Z,93.75
2022-12-19T02:04:55.629Z,88.80
2022-12-19T02:07:24.860Z,80.47
2022-12-19T02:09:56.577Z,75.57
2022-12-19T02:12:25.628Z,70.12
2022-12-19T02:14:57.298Z,66.57
2022-12-19T02:17:52.811Z,61.63
2022-12-19T02:20:52.129Z,63.50
2022-12-19T02:23:29.174Z,60.88
2022-12-19T02:26:22.142Z,64.65
2022-12-19T02:29:08.416Z,66.65
2022-12-19T02:32:17.729Z,63.42
2022-12-19T02:35:20.706Z,66.25
2022-12-19T02:38:30.254Z,65.53
2022-12-19T02:41:02.961Z,68.57
2022-12-19T02:43:36.431Z,62.60
2022-12-19T02:46:05.382Z,63.08
2022-12-19T02:48:34.291Z,58.05
2022-12-19T02:51:01.708Z,59.58
2022-12-19T02:53:29.084Z,54.63
2022-12-19T02:55:59.826Z,56.40
2022-12-19T02:59:06.831Z,57.95
2022-12-19T03:02:10.847Z,56.37
2022-12-19T03:04:41.233Z,56.88
2022-12-19T03:07:28.271Z,56.83
2022-12-19T03:10:02.023Z,61.10
2022-12-19T03:12:36.217Z,58.30
2022-12-19T03:15:04.361Z,58.00
2022-12-19T03:17:35.834Z,62.83
2022-12-19T03:20:13.056Z,62.05
2022-12-19T03:22:40.754Z,54.92
2022-12-19T03:25:08.556Z,63.45
2022-12-19T03:27:37.572Z,66.60
2022-12-19T03:30:11.682Z,62.78
2022-12-19T03:32:40.916Z,68.18
2022-12-19T03:35:11.211Z,65.15
2022-12-19T03:37:41.282Z,65.90
2022-12-19T03:40:16.026Z,56.28
2022-12-19T03:43:04.240Z,61.45
2022-12-19T03:45:41.321Z,57.13
2022-12-19T03:48:13.493Z,74.03
2022-12-19T03:50:53.340Z,69.18
2022-12-19T03:53:46.250Z,79.85
2022-12-19T03:56:40.317Z,79.93
2022-12-19T03:59:10.712Z,76.53
2022-12-19T04:01:38.755Z,84.37
2022-12-19T04:04:06.854Z,80.47
2022-12-19T04:06:35.044Z,81.20
2022-12-19T04:09:02.729Z,84.30
2022-12-19T04:11:36.280Z,89.22
2022-12-19T04:14:07.954Z,86.43
2022-12-19T04:17:00.503Z,84.72
2022-12-19T04:19:30.885Z,82.57
2022-12-19T04:22:30.301Z,82.20
2022-12-19T04:24:58.713Z,88.97
2022-12-19T04:27:27.174Z,85.72
2022-12-19T04:29:56.241Z,81.25
2022-12-19T04:32:25.360Z,83.97
2022-12-19T04:34:53.006Z,77.12
2022-12-19T04:37:20.504Z,76.50
2022-12-19T04:39:48.972Z,78.87
2022-12-19T04:42:16.745Z,73.85
2022-12-19T04:44:44.117Z,79.72
2022-12-19T04:47:12.158Z,78.28
2022-12-19T04:49:39.871Z,74.75
2022-12-19T04:52:07.216Z,70.85
2022-12-19T04:54:35.403Z,86.05
2022-12-19T04:57:03.139Z,73.10
2022-12-19T04:59:30.537Z,73.65
2022-12-19T05:01:58.335Z,78.55
2022-12-19T05:04:27.304Z,77.28
2022-12-19T05:06:54.866Z,90.45
2022-12-19T05:09:22.258Z,79.95
2022-12-19T05:11:50.242Z,73.87
2022-12-19T05:14:17.591Z,77.18
2022-12-19T05:16:45.081Z,79.25
2022-12-19T05:19:12.781Z,75.03
2022-12-19T05:21:40.999Z,81.15
2022-12-19T05:24:08.473Z,77.80
2022-12-19T05:26:36.284Z,83.15
2022-12-19T05:29:03.996Z,81.50
2022-12-19T05:31:31.459Z,75.90
2022-12-19T05:33:59.241Z,73.22
2022-12-19T05:36:32.258Z,73.87
2022-12-19T05:39:00.436Z,69.10
2022-12-19T05:41:27.864Z,69.95
2022-12-19T05:43:56.335Z,72.03
2022-12-19T05:46:25.107Z,85.62
2022-12-19T05:48:52.840Z,77.85
2022-12-19T05:51:21.044Z,82.78
2022-12-19T05:53:48.736Z,73.20
2022-12-19T05:56:21.519Z,82.43
2022-12-19T05:58:49.497Z,85.95
2022-12-19T06:01:20.038Z,78.93
2022-12-19T06:03:48.146Z,88.45
2022-12-19T06:06:20.698Z,88.07
2022-12-19T06:08:48.677Z,85.03
2022-12-19T06:11:16.833Z,83.90
2022-12-19T06:13:44.205Z,90.82
2022-12-19T06:16:14.361Z,85.60
2022-12-19T06:18:45.051Z,86.75
2022-12-19T06:21:15.243Z,90.60
2022-12-19T06:23:43.101Z,82.03
2022-12-19T06:26:18.289Z,82.62
2022-12-19T06:28:50.533Z,84.37
2022-12-19T06:31:20.243Z,87.20
2022-12-19T06:33:47.972Z,93.93
2022-12-19T06:36:22.412Z,98.12
2022-12-19T06:38:50.979Z,82.15
2022-12-19T06:41:41.922Z,92.07
2022-12-19T06:44:12.192Z,100.80
2022-12-19T06:46:41.207Z,100.62
2022-12-19T06:49:10.295Z,95.35
2022-12-19T06:51:37.999Z,78.70
2022-12-19T06:54:05.890Z,91.10
2022-12-19T06:56:36.873Z,103.38
2022-12-19T06:59:05.371Z,106.55
2022-12-19T07:01:44.731Z,103.57
2022-12-19T07:04:16.712Z,96.12
2022-12-19T07:06:48.855Z,86.00
2022-12-19T07:09:18.051Z,93.68
2022-12-19T07:11:45.546Z,105.45
2022-12-19T07:14:12.940Z,99.70
2022-12-19T07:16:41.275Z,85.32
2022-12-19T07:19:09.662Z,101.68
2022-12-19T07:21:38.726Z,98.43
2022-12-19T07:24:07.566Z,106.72
2022-12-19T07:26:36.013Z,87.90
2022-12-19T07:29:03.915Z,89.05
2022-12-19T07:31:31.602Z,91.85
2022-12-19T07:33:59.423Z,92.18
2022-12-19T07:36:26.986Z,98.00
2022-12-19T07:38:54.717Z,90.93
2022-12-19T07:41:22.183Z,89.22
2022-12-19T07:43:49.910Z,87.10
2022-12-19T07:46:18.009Z,98.03
2022-12-19T07:48:45.565Z,88.30
2022-12-19T07:51:13.863Z,97.72
2022-12-19T07:53:41.481Z,84.53
2022-12-19T07:56:08.893Z,77.47
2022-12-19T07:58:36.456Z,72.07
2022-12-19T08:01:04.327Z,79.30
2022-12-19T08:03:32.921Z,76.90
2022-12-19T08:06:05.824Z,74.37
2022-12-19T08:08:33.948Z,73.18
2022-12-19T08:11:17.376Z,63.03
2022-12-19T08:13:46.991Z,63.72
2022-12-19T08:16:15.236Z,59.58
2022-12-19T08:18:42.948Z,51.25
2022-12-19T08:21:11.354Z,45.28
2022-12-19T08:23:38.871Z,44.25
2022-12-19T08:26:08.599Z,49.10
2022-12-19T08:28:37.125Z,44.53
2022-12-19T08:31:09.053Z,47.20
2022-12-19T08:33:37.267Z,36.50
2022-12-19T08:36:06.501Z,38.10
2022-12-19T08:38:34.700Z,34.88
2022-12-19T08:41:02.639Z,41.17
2022-12-19T08:43:30.603Z,44.78
2022-12-19T08:45:58.804Z,45.47
2022-12-19T08:48:26.758Z,43.38
2022-12-19T08:50:56.826Z,58.17
2022-12-19T08:53:26.707Z,55.67
2022-12-19T08:55:59.511Z,46.60
2022-12-19T08:58:28.334Z,46.65
2022-12-19T09:01:05.258Z,52.20
2022-12-19T09:03:48.333Z,44.08
2022-12-19T09:06:21.220Z,51.65
2022-12-19T09:08:49.394Z,51.33
2022-12-19T09:11:19.303Z,49.10
2022-12-19T09:13:48.050Z,51.95
2022-12-19T09:16:18.524Z,44.55
2022-12-19T09:18:50.338Z,51.60
2022-12-19T09:21:19.602Z,47.30
2022-12-19T09:23:52.084Z,45.33
2022-12-19T09:26:20.700Z,42.45
2022-12-19T09:28:48.762Z,48.87
2022-12-19T09:31:19.913Z,44.65
2022-12-19T09:33:48.396Z,41.22
2022-12-19T09:36:18.196Z,44.60
2022-12-19T09:38:45.972Z,37.75
2022-12-19T09:41:13.691Z,39.60
2022-12-19T09:44:08.362Z,39.75
2022-12-19T09:46:56.153Z,41.78
2022-12-19T09:49:45.270Z,45.20
2022-12-19T09:52:17.008Z,38.53
2022-12-19T09:54:49.894Z,38.30
2022-12-19T09:57:29.295Z,39.40
2022-12-19T10:00:00.531Z,39.95
2022-12-19T10:03:03.802Z,40.90
2022-12-19T10:07:07.809Z,42.40
2022-12-19T10:08:52.019Z,47.45
2022-12-19T10:12:42.764Z,53.08
2022-12-19T10:15:07.151Z,46.00
2022-12-19T10:17:52.204Z,40.70
2022-12-19T10:20:25.732Z,39.33
2022-12-19T10:23:02.868Z,38.65
2022-12-19T10:25:52.552Z,42.20
2022-12-19T10:28:58.170Z,38.85
2022-12-19T10:31:37.211Z,40.45
2022-12-19T10:34:24.442Z,40.67
2022-12-19T10:40:12.551Z,38.83
2022-12-19T10:42:51.187Z,41.47
2022-12-19T10:45:21.903Z,39.00
2022-12-19T10:47:56.881Z,38.35
2022-12-19T10:50:30.653Z,35.78
2022-12-19T10:53:03.910Z,42.70
2022-12-19T10:55:37.413Z,40.92
2022-12-19T10:58:12.978Z,37.47
2022-12-19T11:01:01.450Z,41.97
2022-12-19T11:03:28.999Z,43.72
2022-12-19T11:05:58.698Z,41.33
2022-12-19T11:08:31.509Z,43.03
2022-12-19T11:13:17.613Z,41.15
2022-12-19T11:20:43.868Z,43.30
2022-12-19T11:22:36.523Z,37.63
2022-12-19T11:29:25.475Z,43.05
2022-12-19T11:29:39.634Z,40.03
2022-12-19T11:29:46.625Z,50.88
2022-12-19T11:30:36.952Z,50.83
2022-12-19T11:34:06.361Z,40.80
2022-12-19T11:37:15.794Z,40.10
2022-12-19T11:39:50.475Z,39.80
2022-12-19T11:42:25.810Z,39.53
2022-12-19T11:45:01.515Z,41.63
2022-12-19T11:47:45.893Z,41.67
2022-12-19T11:50:18.659Z,37.55
2022-12-19T11:53:18.392Z,36.28
2022-12-19T11:55:53.523Z,39.05
2022-12-19T11:58:21.125Z,37.22
2022-12-19T12:01:18.454Z,37.17
2022-12-19T12:04:05.290Z,34.38
2022-12-19T12:06:44.252Z,35.95
2022-12-19T12:15:24.430Z,34.35
2022-12-19T12:19:02.552Z,33.95
2022-12-19T12:26:52.971Z,33.42
2022-12-19T12:31:07.341Z,36.08
2022-12-19T12:31:18.476Z,41.05
2022-12-19T12:31:40.800Z,36.90
2022-12-19T12:31:50.062Z,37.13
2022-12-19T12:35:31.526Z,41.75
2022-12-19T12:40:55.426Z,40.30
2022-12-19T12:43:33.984Z,40.65
2022-12-19T12:46:03.943Z,39.45
2022-12-19T12:48:38.595Z,40.78
2022-12-19T12:53:36.271Z,35.83
2022-12-19T12:56:07.197Z,48.00
2022-12-19T12:59:03.964Z,42.67
2022-12-19T13:01:36.848Z,40.95
2022-12-19T13:04:10.516Z,38.50
2022-12-19T13:06:43.683Z,36.40
2022-12-19T13:09:17.348Z,43.33
2022-12-19T13:12:20.289Z,44.28
2022-12-19T13:14:52.165Z,44.60
2022-12-19T13:17:48.351Z,44.08
2022-12-19T13:20:16.923Z,43.85
2022-12-19T13:22:45.956Z,47.75
2022-12-19T13:25:36.041Z,36.70
2022-12-19T13:28:03.585Z,42.45
2022-12-19T13:30:51.884Z,39.83
2022-12-19T13:33:22.042Z,44.85
2022-12-19T13:39:24.151Z,51.03
2022-12-19T13:39:55.432Z,43.67
2022-12-19T13:42:01.606Z,50.08
2022-12-19T13:44:41.261Z,38.30
2022-12-19T13:47:11.799Z,37.63
2022-12-19T13:49:39.635Z,47.28
2022-12-19T13:52:07.229Z,36.63
2022-12-19T13:54:44.985Z,39.85
2022-12-19T13:57:22.198Z,40.40
2022-12-19T14:00:00.515Z,39.38
2022-12-19T14:02:45.185Z,43.65
2022-12-19T14:06:16.057Z,39.92
2022-12-19T14:08:23.918Z,45.45
2022-12-19T14:11:35.888Z,65.35
2022-12-19T14:14:16.452Z,51.45
2022-12-19T14:16:47.130Z,45.30
2022-12-19T14:19:26.281Z,56.20
2022-12-19T14:22:04.313Z,70.07
2022-12-19T14:24:40.826Z,48.97
2022-12-19T14:28:18.526Z,41.55
2022-12-19T14:30:30.030Z,44.05
2022-12-19T14:33:41.971Z,41.92
2022-12-19T14:36:10.853Z,44.25
2022-12-19T14:39:24.039Z,40.17
2022-12-19T14:41:45.779Z,39.85
2022-12-19T14:53:52.563Z,43.28
2022-12-19T14:54:03.915Z,44.20
2022-12-19T14:54:05.591Z,42.58
2022-12-19T14:54:37.733Z,41.58
2022-12-19T14:56:13.689Z,39.72
2022-12-19T14:58:54.360Z,38.28
2022-12-19T15:01:26.480Z,41.97
2022-12-19T15:04:48.163Z,45.10
2022-12-19T15:07:08.790Z,43.50
2022-12-19T15:11:03.942Z,40.53
2022-12-19T15:14:49.678Z,45.17
2022-12-19T15:16:02.277Z,40.65
2022-12-19T15:18:32.868Z,42.65
2022-12-19T15:21:05.964Z,40.03
2022-12-19T15:23:34.147Z,45.83
2022-12-19T15:26:05.689Z,39.47
2022-12-19T15:28:37.298Z,47.92
2022-12-19T15:31:28.084Z,50.53
2022-12-19T15:36:43.715Z,41.10
2022-12-19T15:39:11.445Z,47.42
2022-12-19T15:41:39.245Z,44.83
2022-12-19T15:44:27.736Z,51.20
2022-12-19T15:46:55.669Z,50.08
2022-12-19T15:49:23.321Z,53.75
2022-12-19T15:51:50.994Z,49.40
2022-12-19T15:57:09.172Z,47.40
2022-12-19T15:59:39.953Z,42.97
2022-12-19T16:02:16.191Z,42.70
2022-12-19T16:04:45.881Z,48.60
2022-12-19T16:07:19.585Z,49.78
2022-12-19T16:09:48.146Z,43.35
2022-12-19T16:12:21.829Z,46.30
2022-12-19T16:14:56.147Z,50.57
2022-12-19T16:17:24.813Z,47.83
2022-12-19T16:19:52.552Z,44.45
2022-12-19T16:22:23.081Z,45.10
2022-12-19T16:24:52.317Z,44.42
2022-12-19T16:27:27.271Z,45.17
2022-12-19T16:29:55.367Z,43.90
2022-12-19T16:32:24.521Z,45.70
2022-12-19T16:34:52.857Z,44.38
2022-12-19T16:37:20.503Z,46.10
2022-12-19T16:39:48.149Z,45.90
2022-12-19T16:42:16.637Z,52.60
2022-12-19T16:44:46.190Z,50.45
2022-12-19T16:47:16.762Z,50.20
2022-12-19T16:49:44.910Z,44.70
2022-12-19T16:52:12.524Z,44.45
2022-12-19T16:54:40.221Z,54.42
2022-12-19T16:57:18.774Z,51.83
2022-12-19T16:59:46.803Z,51.60
2022-12-19T17:02:30.370Z,43.85
2022-12-19T17:04:58.187Z,45.95
2022-12-19T17:07:32.475Z,43.17
2022-12-19T17:10:00.203Z,50.20
2022-12-19T17:12:27.739Z,46.08
2022-12-19T17:14:55.139Z,44.97
2022-12-19T17:17:22.868Z,48.42
2022-12-19T17:19:50.340Z,47.13
2022-12-19T17:22:19.231Z,44.15
2022-12-19T17:24:48.395Z,47.97
2022-12-19T17:27:17.485Z,45.22
2022-12-19T17:29:47.110Z,46.83
2022-12-19T17:32:23.243Z,45.58
2022-12-19T17:34:52.406Z,46.97
2022-12-19T17:37:20.329Z,48.78
2022-12-19T17:39:48.556Z,51.88
2022-12-19T17:42:24.473Z,46.35
2022-12-19T17:44:52.236Z,45.83
2022-12-19T17:47:21.074Z,45.47
2022-12-19T17:49:48.938Z,47.03
2022-12-19T17:52:18.564Z,41.60
2022-12-19T17:54:46.274Z,41.00
2022-12-19T17:57:15.422Z,48.20
2022-12-19T17:59:43.290Z,43.17
2022-12-19T18:02:23.287Z,50.95
2022-12-19T18:04:51.646Z,43.35
2022-12-19T18:07:19.362Z,45.42
2022-12-19T18:09:46.821Z,44.83
2022-12-19T18:12:14.457Z,47.25
2022-12-19T18:14:41.893Z,44.92
2022-12-19T18:17:12.428Z,52.47
2022-12-19T18:19:40.271Z,45.83
2022-12-19T18:22:14.171Z,46.90
2022-12-19T18:24:42.172Z,52.65
2022-12-19T18:27:09.807Z,47.95
2022-12-19T18:29:37.199Z,47.72
2022-12-19T18:32:05.430Z,47.95
2022-12-19T18:34:33.455Z,45.28
2022-12-19T18:37:00.939Z,46.22
2022-12-19T18:39:29.581Z,48.47
2022-12-19T18:41:57.216Z,42.47
2022-12-19T18:44:24.985Z,50.85
2022-12-19T18:46:53.170Z,46.37
2022-12-19T18:49:21.088Z,43.92
2022-12-19T18:51:49.119Z,44.88
2022-12-19T18:54:19.885Z,44.72
2022-12-19T18:56:47.532Z,44.90
2022-12-19T18:59:15.223Z,44.55
2022-12-19T19:01:45.415Z,55.08
2022-12-19T19:04:18.072Z,45.28
2022-12-19T19:06:51.804Z,47.28
2022-12-19T19:09:21.043Z,47.25
2022-12-19T19:11:51.020Z,51.47
2022-12-19T19:14:18.486Z,40.83
2022-12-19T19:16:46.529Z,57.10
2022-12-19T19:19:17.346Z,46.72
2022-12-19T19:21:45.083Z,47.80
2022-12-19T19:24:15.429Z,45.92
2022-12-19T19:26:43.493Z,51.13
2022-12-19T19:29:13.585Z,50.63
2022-12-19T19:31:42.638Z,47.60
2022-12-19T19:34:23.692Z,48.00
2022-12-19T19:36:54.877Z,55.20
2022-12-19T19:39:23.224Z,50.72
2022-12-19T19:41:51.100Z,51.33
2022-12-19T19:44:18.937Z,53.67
2022-12-19T19:46:49.223Z,48.90
2022-12-19T19:49:17.299Z,47.40
2022-12-19T19:51:45.115Z,48.87
2022-12-19T19:54:12.886Z,51.55
2022-12-19T19:56:41.141Z,53.53
2022-12-19T19:59:08.726Z,53.72
2022-12-19T20:01:36.970Z,47.40
2022-12-19T20:04:05.084Z,51.63
2022-12-19T20:06:33.226Z,56.25
2022-12-19T20:09:03.597Z,52.85
2022-12-19T20:11:34.349Z,51.03
2022-12-19T20:14:04.480Z,55.12
2022-12-19T20:16:32.553Z,48.55
2022-12-19T20:19:00.498Z,51.47
2022-12-19T20:21:29.239Z,56.20
2022-12-19T20:23:57.603Z,46.42
2022-12-19T20:26:25.126Z,56.88
2022-12-19T20:28:52.951Z,58.53
2022-12-19T20:31:23.121Z,58.33
2022-12-19T20:33:53.279Z,52.90
2022-12-19T20:36:22.960Z,56.42
2022-12-19T20:38:51.691Z,54.67
2022-12-19T20:41:19.682Z,54.00
2022-12-19T20:43:48.385Z,54.28
2022-12-19T20:46:17.897Z,53.70
2022-12-19T20:48:46.404Z,52.83
2022-12-19T20:51:15.799Z,55.05
2022-12-19T20:53:43.941Z,57.05
2022-12-19T20:56:14.732Z,54.60
2022-12-19T20:58:42.680Z,53.53
2022-12-19T21:01:16.406Z,56.10
2022-12-19T21:03:47.022Z,54.90
2022-12-19T21:06:17.994Z,56.03
2022-12-19T21:08:46.090Z,55.03
2022-12-19T21:11:15.686Z,51.53
2022-12-19T21:13:43.719Z,57.28
2022-12-19T21:16:13.772Z,55.38
2022-12-19T21:18:42.182Z,64.87
2022-12-19T21:21:12.724Z,56.22
2022-12-19T21:23:40.554Z,53.90
2022-12-19T21:26:08.397Z,58.42
2022-12-19T21:28:38.266Z,58.97
2022-12-19T21:31:10.952Z,63.00
2022-12-19T21:33:38.345Z,57.22
2022-12-19T21:36:12.497Z,59.53
2022-12-19T21:38:40.058Z,62.13
2022-12-19T21:41:08.285Z,63.10
2022-12-19T21:43:36.901Z,55.17
2022-12-19T21:46:12.705Z,52.75
2022-12-19T21:48:43.204Z,61.00
2022-12-19T21:51:11.624Z,58.35
2022-12-19T21:53:39.776Z,58.58
2022-12-19T21:56:24.307Z,59.83
2022-12-19T21:58:54.260Z,59.83
2022-12-19T22:01:22.531Z,54.65
2022-12-19T22:03:51.211Z,59.25
2022-12-19T22:06:27.949Z,57.13
2022-12-19T22:08:56.661Z,55.22
2022-12-19T22:11:24.341Z,60.08
2022-12-19T22:13:52.074Z,59.10
2022-12-19T22:16:20.175Z,56.28
2022-12-19T22:18:47.816Z,55.17
2022-12-19T22:21:15.815Z,57.70
2022-12-19T22:23:43.568Z,62.35
2022-12-19T22:26:13.601Z,56.33
2022-12-19T22:28:43.593Z,59.45
2022-12-19T22:31:37.894Z,59.75
2022-12-19T22:34:08.881Z,59.25
2022-12-19T22:36:37.918Z,58.30
2022-12-19T22:39:08.884Z,56.92
2022-12-19T22:41:37.147Z,62.40
2022-12-19T22:44:05.430Z,57.62
2022-12-19T22:46:35.099Z,54.35
2022-12-19T22:49:04.849Z,70.87
2022-12-19T22:51:33.701Z,61.80
2022-12-19T22:54:01.213Z,56.72
2022-12-19T22:56:29.995Z,56.53
2022-12-19T22:59:00.866Z,60.17
2022-12-19T23:01:33.869Z,57.20
2022-12-19T23:04:02.943Z,63.33
2022-12-19T23:06:32.706Z,61.90
2022-12-19T23:09:00.602Z,64.85
2022-12-19T23:11:34.190Z,64.28
2022-12-19T23:14:02.729Z,59.75
2022-12-19T23:16:30.477Z,62.15
2022-12-19T23:18:57.907Z,65.95
2022-12-19T23:21:26.019Z,60.15
2022-12-19T23:23:54.747Z,63.30
2022-12-19T23:26:28.136Z,62.60
2022-12-19T23:28:58.292Z,58.70
2022-12-19T23:31:26.423Z,57.25
2022-12-19T23:33:54.609Z,58.22
2022-12-19T23:36:44.949Z,56.60
2022-12-19T23:39:11.176Z,55.17
2022-12-19T23:41:38.844Z,62.80
2022-12-19T23:44:06.557Z,58.92
2022-12-19T23:46:33.928Z,61.30
2022-12-19T23:49:01.617Z,63.75
2022-12-19T23:51:29.256Z,52.80
2022-12-19T23:53:56.811Z,57.20
2022-12-19T23:56:26.925Z,61.63
2022-12-19T23:58:54.765Z,51.88
